sensor_id;sensor_type;location;lat;lon;timestamp;P1;durP1;ratioP1;P2;durP2;ratioP2
74715;SDS011;63234;37.558;127.058;2024-01-15T00:01:40;5.80;;;3.00;;
74715;SDS011;63234;37.558;127.058;2024-01-15T00:04:07;2.65;;;2.45;;
74715;SDS011;63234;37.558;127.058;2024-01-15T00:06:33;6.43;;;4.32;;
74715;SDS011;63234;37.558;127.058;2024-01-15T00:08:58;7.30;;;4.05;;
74715;SDS011;63234;37.558;127.058;2024-01-15T00:11:23;4.85;;;2.60;;
74715;SDS011;63234;37.558;127.058;2024-01-15T00:13:49;5.53;;;5.00;;
74715;SDS011;63234;37.558;127.058;2024-01-15T00:16:14;7.57;;;4.20;;
74715;SDS011;63234;37.558;127.058;2024-01-15T00:18:40;6.95;;;4.53;;
74715;SDS011;63234;37.558;127.058;2024-01-15T00:21:05;9.02;;;4.00;;
74715;SDS011;63234;37.558;127.058;2024-01-15T00:23:30;4.20;;;2.35;;
74715;SDS011;63234;37.558;127.058;2024-01-15T00:25:56;8.18;;;3.58;;
74715;SDS011;63234;37.558;127.058;2024-01-15T00:28:21;11.68;;;3.55;;
74715;SDS011;63234;37.558;127.058;2024-01-15T00:30:46;4.60;;;2.38;;
74715;SDS011;63234;37.558;127.058;2024-01-15T00:33:12;3.90;;;3.50;;
74715;SDS011;63234;37.558;127.058;2024-01-15T00:35:37;7.38;;;4.25;;
74715;SDS011;63234;37.558;127.058;2024-01-15T00:38:03;15.63;;;7.43;;
74715;SDS011;63234;37.558;127.058;2024-01-15T00:40:28;15.10;;;6.00;;
74715;SDS011;63234;37.558;127.058;2024-01-15T00:42:53;8.95;;;4.50;;
74715;SDS011;63234;37.558;127.058;2024-01-15T00:45:19;7.55;;;4.68;;
74715;SDS011;63234;37.558;127.058;2024-01-15T00:47:44;6.15;;;4.00;;
74715;SDS011;63234;37.558;127.058;2024-01-15T00:50:09;12.00;;;5.32;;
74715;SDS011;63234;37.558;127.058;2024-01-15T00:52:35;6.32;;;5.38;;
74715;SDS011;63234;37.558;127.058;2024-01-15T00:55:00;3.58;;;2.63;;
74715;SDS011;63234;37.558;127.058;2024-01-15T00:57:25;3.97;;;2.65;;
74715;SDS011;63234;37.558;127.058;2024-01-15T00:59:51;6.20;;;4.45;;
74715;SDS011;63234;37.558;127.058;2024-01-15T01:02:16;7.70;;;4.15;;
74715;SDS011;63234;37.558;127.058;2024-01-15T01:04:42;5.55;;;5.05;;
74715;SDS011;63234;37.558;127.058;2024-01-15T01:07:07;8.38;;;4.88;;
74715;SDS011;63234;37.558;127.058;2024-01-15T01:09:33;10.23;;;6.68;;
74715;SDS011;63234;37.558;127.058;2024-01-15T01:11:58;4.68;;;4.22;;
74715;SDS011;63234;37.558;127.058;2024-01-15T01:14:23;9.65;;;3.88;;
74715;SDS011;63234;37.558;127.058;2024-01-15T01:16:49;5.20;;;3.90;;
74715;SDS011;63234;37.558;127.058;2024-01-15T01:19:14;13.18;;;6.93;;
74715;SDS011;63234;37.558;127.058;2024-01-15T01:21:40;11.82;;;5.30;;
74715;SDS011;63234;37.558;127.058;2024-01-15T01:24:05;8.93;;;5.05;;
74715;SDS011;63234;37.558;127.058;2024-01-15T01:26:31;4.10;;;3.10;;
74715;SDS011;63234;37.558;127.058;2024-01-15T01:28:56;6.88;;;3.08;;
74715;SDS011;63234;37.558;127.058;2024-01-15T01:31:22;9.88;;;4.85;;
74715;SDS011;63234;37.558;127.058;2024-01-15T01:33:48;6.65;;;3.90;;
74715;SDS011;63234;37.558;127.058;2024-01-15T01:36:14;19.48;;;6.93;;
74715;SDS011;63234;37.558;127.058;2024-01-15T01:38:39;12.52;;;4.40;;
74715;SDS011;63234;37.558;127.058;2024-01-15T01:41:05;6.50;;;3.50;;
74715;SDS011;63234;37.558;127.058;2024-01-15T01:43:30;14.88;;;4.03;;
74715;SDS011;63234;37.558;127.058;2024-01-15T01:45:56;16.73;;;6.72;;
74715;SDS011;63234;37.558;127.058;2024-01-15T01:48:23;2.70;;;2.47;;
74715;SDS011;63234;37.558;127.058;2024-01-15T01:50:50;5.57;;;5.03;;
74715;SDS011;63234;37.558;127.058;2024-01-15T01:53:18;10.45;;;4.78;;
74715;SDS011;63234;37.558;127.058;2024-01-15T01:55:43;8.73;;;4.15;;
74715;SDS011;63234;37.558;127.058;2024-01-15T01:58:09;15.13;;;2.85;;
74715;SDS011;63234;37.558;127.058;2024-01-15T02:00:34;4.68;;;2.78;;
74715;SDS011;63234;37.558;127.058;2024-01-15T02:03:01;5.20;;;3.67;;
74715;SDS011;63234;37.558;127.058;2024-01-15T02:05:28;10.88;;;6.00;;
74715;SDS011;63234;37.558;127.058;2024-01-15T02:07:55;11.77;;;3.85;;
74715;SDS011;63234;37.558;127.058;2024-01-15T02:10:20;6.82;;;3.00;;
74715;SDS011;63234;37.558;127.058;2024-01-15T02:12:46;9.10;;;5.30;;
74715;SDS011;63234;37.558;127.058;2024-01-15T02:15:13;15.50;;;3.60;;
74715;SDS011;63234;37.558;127.058;2024-01-15T02:20:30;7.43;;;4.18;;
74715;SDS011;63234;37.558;127.058;2024-01-15T02:23:28;4.57;;;4.15;;
74715;SDS011;63234;37.558;127.058;2024-01-15T02:25:47;4.05;;;2.53;;
74715;SDS011;63234;37.558;127.058;2024-01-15T02:28:13;9.90;;;4.90;;
74715;SDS011;63234;37.558;127.058;2024-01-15T02:30:41;8.93;;;5.13;;
74715;SDS011;63234;37.558;127.058;2024-01-15T02:33:08;9.68;;;5.97;;
74715;SDS011;63234;37.558;127.058;2024-01-15T02:35:34;6.93;;;4.82;;
74715;SDS011;63234;37.558;127.058;2024-01-15T02:38:01;5.35;;;4.75;;
74715;SDS011;63234;37.558;127.058;2024-01-15T02:40:27;9.68;;;3.55;;
74715;SDS011;63234;37.558;127.058;2024-01-15T02:42:52;15.35;;;5.70;;
74715;SDS011;63234;37.558;127.058;2024-01-15T02:45:18;9.63;;;4.03;;
74715;SDS011;63234;37.558;127.058;2024-01-15T02:47:43;4.78;;;4.28;;
74715;SDS011;63234;37.558;127.058;2024-01-15T02:50:08;11.02;;;5.65;;
74715;SDS011;63234;37.558;127.058;2024-01-15T02:52:34;11.48;;;3.78;;
74715;SDS011;63234;37.558;127.058;2024-01-15T02:54:59;3.22;;;2.95;;
74715;SDS011;63234;37.558;127.058;2024-01-15T02:57:24;8.15;;;4.97;;
74715;SDS011;63234;37.558;127.058;2024-01-15T02:59:50;6.88;;;5.07;;
74715;SDS011;63234;37.558;127.058;2024-01-15T03:02:15;5.38;;;4.40;;
74715;SDS011;63234;37.558;127.058;2024-01-15T03:04:44;30.52;;;6.28;;
74715;SDS011;63234;37.558;127.058;2024-01-15T03:07:09;8.20;;;5.35;;
74715;SDS011;63234;37.558;127.058;2024-01-15T03:09:35;5.75;;;3.97;;
74715;SDS011;63234;37.558;127.058;2024-01-15T03:12:00;6.72;;;3.80;;
74715;SDS011;63234;37.558;127.058;2024-01-15T03:14:25;4.78;;;3.58;;
74715;SDS011;63234;37.558;127.058;2024-01-15T03:16:51;11.35;;;5.68;;
74715;SDS011;63234;37.558;127.058;2024-01-15T03:19:17;3.97;;;2.58;;
74715;SDS011;63234;37.558;127.058;2024-01-15T03:21:42;7.10;;;3.47;;
74715;SDS011;63234;37.558;127.058;2024-01-15T03:24:08;13.23;;;5.93;;
74715;SDS011;63234;37.558;127.058;2024-01-15T03:26:33;25.33;;;3.30;;
74715;SDS011;63234;37.558;127.058;2024-01-15T03:28:58;7.57;;;3.40;;
74715;SDS011;63234;37.558;127.058;2024-01-15T03:31:24;5.35;;;3.42;;
74715;SDS011;63234;37.558;127.058;2024-01-15T03:33:49;3.45;;;3.13;;
74715;SDS011;63234;37.558;127.058;2024-01-15T03:36:14;5.70;;;3.20;;
74715;SDS011;63234;37.558;127.058;2024-01-15T03:38:43;9.25;;;5.65;;
74715;SDS011;63234;37.558;127.058;2024-01-15T03:41:08;7.93;;;6.63;;
74715;SDS011;63234;37.558;127.058;2024-01-15T03:43:33;12.75;;;5.22;;
74715;SDS011;63234;37.558;127.058;2024-01-15T03:45:59;9.77;;;4.60;;
74715;SDS011;63234;37.558;127.058;2024-01-15T03:48:24;13.93;;;4.80;;
74715;SDS011;63234;37.558;127.058;2024-01-15T03:50:50;7.45;;;4.65;;
74715;SDS011;63234;37.558;127.058;2024-01-15T03:53:15;9.85;;;5.80;;
74715;SDS011;63234;37.558;127.058;2024-01-15T03:55:40;9.27;;;5.10;;
74715;SDS011;63234;37.558;127.058;2024-01-15T03:58:06;7.53;;;3.75;;
74715;SDS011;63234;37.558;127.058;2024-01-15T04:00:31;5.55;;;4.82;;
74715;SDS011;63234;37.558;127.058;2024-01-15T04:02:56;26.05;;;5.70;;
74715;SDS011;63234;37.558;127.058;2024-01-15T04:05:22;7.57;;;5.22;;
74715;SDS011;63234;37.558;127.058;2024-01-15T04:07:47;12.88;;;6.43;;
74715;SDS011;63234;37.558;127.058;2024-01-15T04:10:12;5.80;;;3.42;;
74715;SDS011;63234;37.558;127.058;2024-01-15T04:12:38;9.90;;;5.38;;
74715;SDS011;63234;37.558;127.058;2024-01-15T04:15:03;5.70;;;3.90;;
74715;SDS011;63234;37.558;127.058;2024-01-15T04:17:29;7.60;;;5.45;;
74715;SDS011;63234;37.558;127.058;2024-01-15T04:19:54;12.13;;;5.63;;
74715;SDS011;63234;37.558;127.058;2024-01-15T04:22:20;12.48;;;7.22;;
74715;SDS011;63234;37.558;127.058;2024-01-15T04:24:45;5.25;;;3.13;;
74715;SDS011;63234;37.558;127.058;2024-01-15T04:27:10;3.22;;;2.92;;
74715;SDS011;63234;37.558;127.058;2024-01-15T04:29:39;15.05;;;5.28;;
74715;SDS011;63234;37.558;127.058;2024-01-15T04:32:04;5.85;;;3.78;;
74715;SDS011;63234;37.558;127.058;2024-01-15T04:34:30;13.82;;;4.65;;
74715;SDS011;63234;37.558;127.058;2024-01-15T04:36:55;9.70;;;5.65;;
74715;SDS011;63234;37.558;127.058;2024-01-15T04:39:21;8.45;;;5.07;;
74715;SDS011;63234;37.558;127.058;2024-01-15T04:41:47;10.85;;;4.07;;
74715;SDS011;63234;37.558;127.058;2024-01-15T04:44:12;3.58;;;3.08;;
74715;SDS011;63234;37.558;127.058;2024-01-15T04:46:38;6.45;;;3.75;;
74715;SDS011;63234;37.558;127.058;2024-01-15T04:49:03;4.10;;;2.85;;
74715;SDS011;63234;37.558;127.058;2024-01-15T04:51:28;11.30;;;5.35;;
74715;SDS011;63234;37.558;127.058;2024-01-15T04:53:54;4.25;;;3.83;;
74715;SDS011;63234;37.558;127.058;2024-01-15T04:56:19;14.00;;;3.80;;
74715;SDS011;63234;37.558;127.058;2024-01-15T04:58:44;8.23;;;3.70;;
74715;SDS011;63234;37.558;127.058;2024-01-15T05:01:10;9.02;;;4.30;;
74715;SDS011;63234;37.558;127.058;2024-01-15T05:03:36;9.25;;;5.40;;
74715;SDS011;63234;37.558;127.058;2024-01-15T05:06:01;13.52;;;6.13;;
74715;SDS011;63234;37.558;127.058;2024-01-15T05:08:26;7.50;;;5.13;;
74715;SDS011;63234;37.558;127.058;2024-01-15T05:10:51;11.68;;;4.53;;
74715;SDS011;63234;37.558;127.058;2024-01-15T05:13:17;7.43;;;5.10;;
74715;SDS011;63234;37.558;127.058;2024-01-15T05:15:42;6.78;;;4.78;;
74715;SDS011;63234;37.558;127.058;2024-01-15T05:18:08;11.07;;;5.75;;
74715;SDS011;63234;37.558;127.058;2024-01-15T05:20:33;10.07;;;5.05;;
74715;SDS011;63234;37.558;127.058;2024-01-15T05:22:58;9.75;;;5.78;;
74715;SDS011;63234;37.558;127.058;2024-01-15T05:25:23;6.00;;;3.55;;
74715;SDS011;63234;37.558;127.058;2024-01-15T05:27:49;4.47;;;4.03;;
74715;SDS011;63234;37.558;127.058;2024-01-15T05:30:14;13.95;;;5.20;;
74715;SDS011;63234;37.558;127.058;2024-01-15T05:32:40;10.63;;;4.75;;
74715;SDS011;63234;37.558;127.058;2024-01-15T05:35:05;10.80;;;4.85;;
74715;SDS011;63234;37.558;127.058;2024-01-15T05:37:31;7.28;;;3.53;;
74715;SDS011;63234;37.558;127.058;2024-01-15T05:39:56;8.65;;;2.90;;
74715;SDS011;63234;37.558;127.058;2024-01-15T05:42:21;9.60;;;4.72;;
74715;SDS011;63234;37.558;127.058;2024-01-15T05:44:47;9.93;;;5.25;;
74715;SDS011;63234;37.558;127.058;2024-01-15T05:47:12;4.35;;;4.03;;
74715;SDS011;63234;37.558;127.058;2024-01-15T05:49:37;5.13;;;3.78;;
74715;SDS011;63234;37.558;127.058;2024-01-15T05:52:03;5.75;;;4.03;;
74715;SDS011;63234;37.558;127.058;2024-01-15T05:54:29;18.08;;;6.40;;
74715;SDS011;63234;37.558;127.058;2024-01-15T05:56:54;5.45;;;4.93;;
74715;SDS011;63234;37.558;127.058;2024-01-15T05:59:20;16.48;;;7.65;;
74715;SDS011;63234;37.558;127.058;2024-01-15T06:01:45;5.15;;;3.88;;
74715;SDS011;63234;37.558;127.058;2024-01-15T06:04:10;10.90;;;4.43;;
74715;SDS011;63234;37.558;127.058;2024-01-15T06:06:35;12.30;;;5.05;;
74715;SDS011;63234;37.558;127.058;2024-01-15T06:09:01;6.60;;;4.40;;
74715;SDS011;63234;37.558;127.058;2024-01-15T06:11:31;18.25;;;8.68;;
74715;SDS011;63234;37.558;127.058;2024-01-15T06:13:57;9.60;;;5.18;;
74715;SDS011;63234;37.558;127.058;2024-01-15T06:16:23;14.23;;;6.15;;
74715;SDS011;63234;37.558;127.058;2024-01-15T06:18:48;7.15;;;4.18;;
74715;SDS011;63234;37.558;127.058;2024-01-15T06:21:14;13.57;;;5.18;;
74715;SDS011;63234;37.558;127.058;2024-01-15T06:23:39;6.47;;;3.17;;
74715;SDS011;63234;37.558;127.058;2024-01-15T06:26:05;6.93;;;5.28;;
74715;SDS011;63234;37.558;127.058;2024-01-15T06:28:30;3.17;;;2.83;;
74715;SDS011;63234;37.558;127.058;2024-01-15T06:30:56;2.78;;;2.58;;
74715;SDS011;63234;37.558;127.058;2024-01-15T06:33:22;5.03;;;4.53;;
74715;SDS011;63234;37.558;127.058;2024-01-15T06:35:48;25.33;;;4.10;;
74715;SDS011;63234;37.558;127.058;2024-01-15T06:38:14;4.72;;;2.58;;
74715;SDS011;63234;37.558;127.058;2024-01-15T06:40:40;6.32;;;3.60;;
74715;SDS011;63234;37.558;127.058;2024-01-15T06:43:10;6.78;;;4.18;;
74715;SDS011;63234;37.558;127.058;2024-01-15T06:45:39;6.43;;;4.55;;
74715;SDS011;63234;37.558;127.058;2024-01-15T06:48:04;9.80;;;3.15;;
74715;SDS011;63234;37.558;127.058;2024-01-15T06:50:30;6.68;;;4.15;;
74715;SDS011;63234;37.558;127.058;2024-01-15T06:52:55;7.43;;;3.25;;
74715;SDS011;63234;37.558;127.058;2024-01-15T06:55:21;5.07;;;3.60;;
74715;SDS011;63234;37.558;127.058;2024-01-15T06:57:46;11.07;;;4.63;;
74715;SDS011;63234;37.558;127.058;2024-01-15T07:00:12;4.95;;;2.92;;
74715;SDS011;63234;37.558;127.058;2024-01-15T07:02:37;4.90;;;2.88;;
74715;SDS011;63234;37.558;127.058;2024-01-15T07:05:03;8.05;;;4.60;;
74715;SDS011;63234;37.558;127.058;2024-01-15T07:07:30;8.82;;;5.70;;
74715;SDS011;63234;37.558;127.058;2024-01-15T07:09:55;9.68;;;3.63;;
74715;SDS011;63234;37.558;127.058;2024-01-15T07:12:21;6.70;;;4.97;;
74715;SDS011;63234;37.558;127.058;2024-01-15T07:14:46;10.88;;;4.68;;
74715;SDS011;63234;37.558;127.058;2024-01-15T07:17:11;6.53;;;2.83;;
74715;SDS011;63234;37.558;127.058;2024-01-15T07:19:37;6.15;;;3.47;;
74715;SDS011;63234;37.558;127.058;2024-01-15T07:22:02;5.13;;;2.63;;
74715;SDS011;63234;37.558;127.058;2024-01-15T07:24:28;5.60;;;2.75;;
74715;SDS011;63234;37.558;127.058;2024-01-15T07:26:53;5.05;;;2.50;;
74715;SDS011;63234;37.558;127.058;2024-01-15T07:29:18;6.32;;;3.05;;
74715;SDS011;63234;37.558;127.058;2024-01-15T07:31:48;10.10;;;4.35;;
74715;SDS011;63234;37.558;127.058;2024-01-15T07:34:14;13.40;;;4.35;;
74715;SDS011;63234;37.558;127.058;2024-01-15T07:36:39;8.23;;;5.97;;
74715;SDS011;63234;37.558;127.058;2024-01-15T07:39:05;4.50;;;3.25;;
74715;SDS011;63234;37.558;127.058;2024-01-15T07:41:30;13.88;;;6.80;;
74715;SDS011;63234;37.558;127.058;2024-01-15T07:43:56;5.15;;;3.40;;
74715;SDS011;63234;37.558;127.058;2024-01-15T07:46:21;28.33;;;5.78;;
74715;SDS011;63234;37.558;127.058;2024-01-15T07:48:46;8.75;;;3.88;;
74715;SDS011;63234;37.558;127.058;2024-01-15T07:51:12;11.98;;;6.15;;
74715;SDS011;63234;37.558;127.058;2024-01-15T07:53:37;7.82;;;4.13;;
74715;SDS011;63234;37.558;127.058;2024-01-15T07:56:02;9.73;;;5.38;;
74715;SDS011;63234;37.558;127.058;2024-01-15T07:58:28;8.50;;;5.07;;
74715;SDS011;63234;37.558;127.058;2024-01-15T08:00:53;6.93;;;3.58;;
74715;SDS011;63234;37.558;127.058;2024-01-15T08:03:18;9.27;;;5.18;;
74715;SDS011;63234;37.558;127.058;2024-01-15T08:05:44;11.57;;;4.95;;
74715;SDS011;63234;37.558;127.058;2024-01-15T08:08:09;9.27;;;6.07;;
74715;SDS011;63234;37.558;127.058;2024-01-15T08:10:34;7.22;;;5.28;;
74715;SDS011;63234;37.558;127.058;2024-01-15T08:13:00;22.17;;;7.60;;
74715;SDS011;63234;37.558;127.058;2024-01-15T08:15:25;4.95;;;3.95;;
74715;SDS011;63234;37.558;127.058;2024-01-15T08:17:50;8.20;;;5.22;;
74715;SDS011;63234;37.558;127.058;2024-01-15T08:20:16;17.42;;;5.05;;
74715;SDS011;63234;37.558;127.058;2024-01-15T08:22:41;9.70;;;4.13;;
74715;SDS011;63234;37.558;127.058;2024-01-15T08:25:06;13.40;;;5.43;;
74715;SDS011;63234;37.558;127.058;2024-01-15T08:27:32;3.83;;;2.65;;
74715;SDS011;63234;37.558;127.058;2024-01-15T08:29:57;7.97;;;4.43;;
74715;SDS011;63234;37.558;127.058;2024-01-15T08:32:23;10.75;;;4.13;;
74715;SDS011;63234;37.558;127.058;2024-01-15T08:34:48;6.38;;;4.22;;
74715;SDS011;63234;37.558;127.058;2024-01-15T08:37:17;7.65;;;5.28;;
74715;SDS011;63234;37.558;127.058;2024-01-15T08:39:42;18.27;;;6.40;;
74715;SDS011;63234;37.558;127.058;2024-01-15T08:42:08;12.75;;;8.15;;
74715;SDS011;63234;37.558;127.058;2024-01-15T08:44:33;16.80;;;7.10;;
74715;SDS011;63234;37.558;127.058;2024-01-15T08:46:58;14.77;;;5.88;;
74715;SDS011;63234;37.558;127.058;2024-01-15T08:49:24;6.18;;;4.15;;
74715;SDS011;63234;37.558;127.058;2024-01-15T08:51:49;10.38;;;3.88;;
74715;SDS011;63234;37.558;127.058;2024-01-15T08:54:15;10.48;;;6.22;;
74715;SDS011;63234;37.558;127.058;2024-01-15T08:56:40;23.98;;;7.97;;
74715;SDS011;63234;37.558;127.058;2024-01-15T08:59:05;10.13;;;4.00;;
74715;SDS011;63234;37.558;127.058;2024-01-15T09:01:31;8.38;;;4.32;;
74715;SDS011;63234;37.558;127.058;2024-01-15T09:03:57;11.88;;;6.03;;
74715;SDS011;63234;37.558;127.058;2024-01-15T09:06:22;12.43;;;5.68;;
74715;SDS011;63234;37.558;127.058;2024-01-15T09:08:48;9.70;;;5.28;;
74715;SDS011;63234;37.558;127.058;2024-01-15T09:11:14;7.55;;;4.10;;
74715;SDS011;63234;37.558;127.058;2024-01-15T09:13:39;8.68;;;6.30;;
74715;SDS011;63234;37.558;127.058;2024-01-15T09:16:05;6.93;;;4.05;;
74715;SDS011;63234;37.558;127.058;2024-01-15T09:18:30;8.80;;;6.07;;
74715;SDS011;63234;37.558;127.058;2024-01-15T09:20:55;13.15;;;6.03;;
74715;SDS011;63234;37.558;127.058;2024-01-15T09:23:21;9.60;;;4.57;;
74715;SDS011;63234;37.558;127.058;2024-01-15T09:25:46;18.20;;;5.38;;
74715;SDS011;63234;37.558;127.058;2024-01-15T09:28:13;10.75;;;4.85;;
74715;SDS011;63234;37.558;127.058;2024-01-15T09:30:38;16.25;;;5.90;;
74715;SDS011;63234;37.558;127.058;2024-01-15T09:33:04;7.40;;;4.70;;
74715;SDS011;63234;37.558;127.058;2024-01-15T09:35:30;12.02;;;5.82;;
74715;SDS011;63234;37.558;127.058;2024-01-15T09:37:55;10.85;;;5.63;;
74715;SDS011;63234;37.558;127.058;2024-01-15T09:40:20;6.55;;;4.25;;
74715;SDS011;63234;37.558;127.058;2024-01-15T09:42:46;12.05;;;5.28;;
74715;SDS011;63234;37.558;127.058;2024-01-15T09:45:12;7.32;;;4.72;;
74715;SDS011;63234;37.558;127.058;2024-01-15T09:47:38;8.75;;;4.60;;
74715;SDS011;63234;37.558;127.058;2024-01-15T09:50:05;11.80;;;4.85;;
74715;SDS011;63234;37.558;127.058;2024-01-15T09:52:31;5.13;;;3.60;;
74715;SDS011;63234;37.558;127.058;2024-01-15T09:54:57;14.02;;;6.40;;
74715;SDS011;63234;37.558;127.058;2024-01-15T09:57:24;6.15;;;4.38;;
74715;SDS011;63234;37.558;127.058;2024-01-15T09:59:50;8.70;;;5.15;;
74715;SDS011;63234;37.558;127.058;2024-01-15T10:02:18;13.45;;;5.47;;
74715;SDS011;63234;37.558;127.058;2024-01-15T10:04:44;7.82;;;4.40;;
74715;SDS011;63234;37.558;127.058;2024-01-15T10:07:09;17.25;;;7.57;;
74715;SDS011;63234;37.558;127.058;2024-01-15T10:09:44;10.10;;;5.13;;
74715;SDS011;63234;37.558;127.058;2024-01-15T10:12:11;8.60;;;3.80;;
74715;SDS011;63234;37.558;127.058;2024-01-15T10:14:36;4.80;;;2.63;;
74715;SDS011;63234;37.558;127.058;2024-01-15T10:17:11;1.75;;;1.60;;
74715;SDS011;63234;37.558;127.058;2024-01-15T10:19:38;3.83;;;3.30;;
74715;SDS011;63234;37.558;127.058;2024-01-15T10:22:03;9.02;;;3.80;;
74715;SDS011;63234;37.558;127.058;2024-01-15T10:24:29;10.70;;;3.40;;
74715;SDS011;63234;37.558;127.058;2024-01-15T10:27:04;10.30;;;4.43;;
74715;SDS011;63234;37.558;127.058;2024-01-15T10:29:30;3.35;;;2.08;;
74715;SDS011;63234;37.558;127.058;2024-01-15T10:31:56;5.57;;;2.30;;
74715;SDS011;63234;37.558;127.058;2024-01-15T10:34:21;6.93;;;2.60;;
74715;SDS011;63234;37.558;127.058;2024-01-15T10:36:47;7.75;;;3.00;;
74715;SDS011;63234;37.558;127.058;2024-01-15T10:39:20;4.00;;;2.53;;
74715;SDS011;63234;37.558;127.058;2024-01-15T10:41:47;1.33;;;1.20;;
74715;SDS011;63234;37.558;127.058;2024-01-15T10:44:12;4.22;;;1.98;;
74715;SDS011;63234;37.558;127.058;2024-01-15T10:46:38;2.92;;;1.77;;
74715;SDS011;63234;37.558;127.058;2024-01-15T10:49:05;5.78;;;2.03;;
74715;SDS011;63234;37.558;127.058;2024-01-15T10:51:31;6.00;;;1.95;;
74715;SDS011;63234;37.558;127.058;2024-01-15T10:53:57;2.47;;;1.48;;
74715;SDS011;63234;37.558;127.058;2024-01-15T10:56:25;4.57;;;1.85;;
74715;SDS011;63234;37.558;127.058;2024-01-15T10:58:51;6.65;;;2.08;;
74715;SDS011;63234;37.558;127.058;2024-01-15T11:01:17;4.55;;;1.75;;
74715;SDS011;63234;37.558;127.058;2024-01-15T11:03:44;2.63;;;1.20;;
74715;SDS011;63234;37.558;127.058;2024-01-15T11:06:17;6.75;;;1.80;;
74715;SDS011;63234;37.558;127.058;2024-01-15T11:08:49;4.90;;;1.80;;
74715;SDS011;63234;37.558;127.058;2024-01-15T11:11:17;5.18;;;2.15;;
74715;SDS011;63234;37.558;127.058;2024-01-15T11:13:43;4.15;;;2.13;;
74715;SDS011;63234;37.558;127.058;2024-01-15T11:16:12;4.68;;;2.30;;
74715;SDS011;63234;37.558;127.058;2024-01-15T11:18:40;7.00;;;1.90;;
74715;SDS011;63234;37.558;127.058;2024-01-15T11:26:55;6.78;;;2.20;;
74715;SDS011;63234;37.558;127.058;2024-01-15T11:29:04;3.90;;;2.67;;
74715;SDS011;63234;37.558;127.058;2024-01-15T11:34:08;3.33;;;1.85;;
74715;SDS011;63234;37.558;127.058;2024-01-15T11:41:59;3.80;;;1.23;;
74715;SDS011;63234;37.558;127.058;2024-01-15T11:44:26;3.15;;;2.10;;
74715;SDS011;63234;37.558;127.058;2024-01-15T11:46:58;3.75;;;1.65;;
74715;SDS011;63234;37.558;127.058;2024-01-15T11:52:11;2.05;;;1.08;;
74715;SDS011;63234;37.558;127.058;2024-01-15T11:54:40;2.50;;;1.67;;
74715;SDS011;63234;37.558;127.058;2024-01-15T11:57:16;1.45;;;1.02;;
74715;SDS011;63234;37.558;127.058;2024-01-15T11:59:55;3.85;;;1.80;;
74715;SDS011;63234;37.558;127.058;2024-01-15T12:02:21;2.17;;;1.38;;
74715;SDS011;63234;37.558;127.058;2024-01-15T12:04:47;3.33;;;1.65;;
74715;SDS011;63234;37.558;127.058;2024-01-15T12:07:12;5.85;;;2.38;;
74715;SDS011;63234;37.558;127.058;2024-01-15T12:09:42;2.38;;;1.38;;
74715;SDS011;63234;37.558;127.058;2024-01-15T12:12:09;3.35;;;2.05;;
74715;SDS011;63234;37.558;127.058;2024-01-15T12:14:44;2.15;;;1.40;;
74715;SDS011;63234;37.558;127.058;2024-01-15T12:17:10;2.33;;;1.50;;
74715;SDS011;63234;37.558;127.058;2024-01-15T12:19:36;8.07;;;1.15;;
74715;SDS011;63234;37.558;127.058;2024-01-15T12:22:02;3.47;;;1.50;;
74715;SDS011;63234;37.558;127.058;2024-01-15T12:24:27;2.03;;;1.00;;
74715;SDS011;63234;37.558;127.058;2024-01-15T12:26:52;3.80;;;1.35;;
74715;SDS011;63234;37.558;127.058;2024-01-15T12:29:18;3.10;;;1.83;;
74715;SDS011;63234;37.558;127.058;2024-01-15T12:31:46;6.45;;;2.60;;
74715;SDS011;63234;37.558;127.058;2024-01-15T12:34:13;2.65;;;1.20;;
74715;SDS011;63234;37.558;127.058;2024-01-15T12:36:39;1.85;;;1.25;;
74715;SDS011;63234;37.558;127.058;2024-01-15T12:39:05;4.90;;;2.13;;
74715;SDS011;63234;37.558;127.058;2024-01-15T12:41:33;8.73;;;3.28;;
74715;SDS011;63234;37.558;127.058;2024-01-15T12:43:59;3.47;;;1.73;;
74715;SDS011;63234;37.558;127.058;2024-01-15T12:46:25;2.72;;;2.03;;
74715;SDS011;63234;37.558;127.058;2024-01-15T12:48:50;2.10;;;1.52;;
74715;SDS011;63234;37.558;127.058;2024-01-15T12:51:16;5.68;;;2.78;;
74715;SDS011;63234;37.558;127.058;2024-01-15T12:53:41;2.95;;;1.67;;
74715;SDS011;63234;37.558;127.058;2024-01-15T12:56:06;1.55;;;1.02;;
74715;SDS011;63234;37.558;127.058;2024-01-15T12:58:32;2.55;;;1.67;;
74715;SDS011;63234;37.558;127.058;2024-01-15T13:00:57;5.90;;;2.67;;
74715;SDS011;63234;37.558;127.058;2024-01-15T13:03:23;9.10;;;2.67;;
74715;SDS011;63234;37.558;127.058;2024-01-15T13:05:48;6.10;;;2.75;;
74715;SDS011;63234;37.558;127.058;2024-01-15T13:08:14;3.55;;;1.83;;
74715;SDS011;63234;37.558;127.058;2024-01-15T13:10:40;4.43;;;2.63;;
74715;SDS011;63234;37.558;127.058;2024-01-15T13:13:07;1.88;;;1.23;;
74715;SDS011;63234;37.558;127.058;2024-01-15T13:15:32;2.55;;;1.67;;
74715;SDS011;63234;37.558;127.058;2024-01-15T13:17:58;3.55;;;2.05;;
74715;SDS011;63234;37.558;127.058;2024-01-15T13:20:23;4.25;;;2.50;;
74715;SDS011;63234;37.558;127.058;2024-01-15T13:22:48;3.78;;;2.08;;
74715;SDS011;63234;37.558;127.058;2024-01-15T13:25:14;2.83;;;1.80;;
74715;SDS011;63234;37.558;127.058;2024-01-15T13:27:41;5.53;;;2.15;;
74715;SDS011;63234;37.558;127.058;2024-01-15T13:30:06;3.15;;;1.75;;
74715;SDS011;63234;37.558;127.058;2024-01-15T13:32:32;9.85;;;2.88;;
74715;SDS011;63234;37.558;127.058;2024-01-15T13:34:59;3.25;;;1.98;;
74715;SDS011;63234;37.558;127.058;2024-01-15T13:37:25;4.32;;;2.28;;
74715;SDS011;63234;37.558;127.058;2024-01-15T13:39:50;4.95;;;2.95;;
74715;SDS011;63234;37.558;127.058;2024-01-15T13:42:19;4.05;;;2.58;;
74715;SDS011;63234;37.558;127.058;2024-01-15T13:44:47;2.45;;;2.05;;
74715;SDS011;63234;37.558;127.058;2024-01-15T13:47:12;2.88;;;1.90;;
74715;SDS011;63234;37.558;127.058;2024-01-15T13:49:38;1.95;;;1.15;;
74715;SDS011;63234;37.558;127.058;2024-01-15T13:52:04;4.03;;;2.72;;
74715;SDS011;63234;37.558;127.058;2024-01-15T13:54:29;5.07;;;2.08;;
74715;SDS011;63234;37.558;127.058;2024-01-15T13:56:55;3.92;;;2.63;;
74715;SDS011;63234;37.558;127.058;2024-01-15T13:59:21;2.45;;;1.50;;
74715;SDS011;63234;37.558;127.058;2024-01-15T14:01:46;2.30;;;1.58;;
74715;SDS011;63234;37.558;127.058;2024-01-15T14:04:12;4.60;;;1.70;;
74715;SDS011;63234;37.558;127.058;2024-01-15T14:06:38;1.98;;;1.40;;
74715;SDS011;63234;37.558;127.058;2024-01-15T14:09:04;2.88;;;1.60;;
74715;SDS011;63234;37.558;127.058;2024-01-15T14:11:30;2.08;;;1.52;;
74715;SDS011;63234;37.558;127.058;2024-01-15T14:13:56;3.58;;;2.53;;
74715;SDS011;63234;37.558;127.058;2024-01-15T14:16:22;5.40;;;1.95;;
74715;SDS011;63234;37.558;127.058;2024-01-15T14:18:47;3.60;;;1.75;;
74715;SDS011;63234;37.558;127.058;2024-01-15T14:21:13;3.78;;;1.52;;
74715;SDS011;63234;37.558;127.058;2024-01-15T14:23:38;3.95;;;1.42;;
74715;SDS011;63234;37.558;127.058;2024-01-15T14:26:03;4.25;;;2.00;;
74715;SDS011;63234;37.558;127.058;2024-01-15T14:28:29;3.30;;;1.50;;
74715;SDS011;63234;37.558;127.058;2024-01-15T14:30:54;7.63;;;2.17;;